الصفحة الرئيسية
METAR-TAF:

METAR-TAF

مطار :

مطار وهران الدولي أحمد بن بلة

وهران, الجزائر

دائرة عرض: 35-38N, خط طول: 000-36W, ارتفاع: 90 متر

مراقبة الطقس الحالي

تاريخ ووقت الإصدار 37 دقيقة قبل الساعة 14:30UTC
ريح 15 عقدة من الجنوب الغربي
درجة الحرارة 19°درجة مئوية
الرطوبة 56%
ضغط 1020 hPa
الرؤية 10 كم أو أكثر
غيوم قليلة على ارتفاع 1600 قدم
غيوم مفككة على ارتفاع 2600 قدم

METAR: DAOO 121430Z 22015KT 9999 FEW016 BKN026 19/10 Q1020

زمن: 16:07 (15:07 UTC)

توقعات

تاريخ ووقت الإصدار 4ساعات و 7 دقيقة قبل الساعة 11:00UTC
التوقعات صالحة من12 الساعة 12 UTC إلى 13 الساعة 12 UTC
ريح 12 عقدة من الغرب
الرؤية 10 كم أو أكثر
غيوم قليلة على ارتفاع 2300 قدم
مؤقت
من 13 الساعة 01 UTC إلى 13 الساعة 04 UTC
ريح 16 عقدة من الغرب/الجنوب الغربي تتزايد حتى 33 عقدة
الرؤية 10 كم أو أكثر
غيوم متفرقة على ارتفاع 2300 قدم
أصبح
من 13 الساعة 04 UTC إلى 13 الساعة 07 UTC
ريح 15 عقدة من الغرب
الرؤية 10 كم أو أكثر
غيوم قليلة على ارتفاع 2600 قدم
غيوم متفرقة على ارتفاع 23300 قدم

TAF: DAOO 121100Z 1212/1312 26012KT 9999 FEW023 TEMPO 1301/1304 24016G33KT 9999 SCT023 BECMG 1304/1307 26015KT 9999 FEW026 SCT233

أرصاد الطقس والتوقعات من أكثر من 4000 مطار (تقارير الطقس للمطار METAR والتنبؤ بالطقس بالمطارTAF).

المحطات المتاحة هي النقط الصفراء والحمراء على الخريطة.

حرك المؤشر فوق النقطة لمعرفة اسم المحطة.

ثم انقر لمعرفة أرصاد وتوقعات الطقس.

لتغيير الخارطة: اضغط على الأزرار الخضراء مع رمز الصليب الأسود للتكبير. على الزر الأخضر مع شرطة للتصغير، أو على الأسهم الخضراء للخرائط المجاورة.


METAR-TAF: